createdAt,value
2019-03-31T00:00:17.395Z,23.50
2019-03-31T00:02:44.885Z,23.60
2019-03-31T00:05:11.639Z,23.40
2019-03-31T00:07:38.774Z,23.40
2019-03-31T00:10:05.512Z,23.50
2019-03-31T00:12:32.271Z,23.70
2019-03-31T00:14:58.997Z,23.70
2019-03-31T00:17:25.687Z,23.50
2019-03-31T00:19:53.224Z,23.50
2019-03-31T00:22:19.947Z,23.60
2019-03-31T00:24:47.966Z,23.60
2019-03-31T00:27:14.814Z,23.60
2019-03-31T00:29:41.552Z,23.40
2019-03-31T00:32:08.189Z,23.70
2019-03-31T00:34:35.197Z,23.60
2019-03-31T00:37:01.968Z,23.50
2019-03-31T00:39:28.723Z,23.50
2019-03-31T00:41:55.565Z,23.60
2019-03-31T00:44:22.509Z,23.60
2019-03-31T00:46:49.243Z,23.70
2019-03-31T00:49:16.077Z,23.60
2019-03-31T00:51:42.831Z,23.60
2019-03-31T00:54:09.553Z,23.70
2019-03-31T00:56:36.307Z,23.60
2019-03-31T00:59:03.041Z,23.70
2019-03-31T01:01:36.250Z,23.60
2019-03-31T01:03:58.300Z,23.70
2019-03-31T01:06:25.024Z,23.70
2019-03-31T01:08:52.055Z,23.80
2019-03-31T01:11:18.814Z,23.80
2019-03-31T01:13:45.554Z,23.80
2019-03-31T01:16:12.741Z,23.80
2019-03-31T01:18:39.539Z,23.70
2019-03-31T01:21:06.263Z,23.90
2019-03-31T01:23:32.996Z,23.70
2019-03-31T01:26:00.591Z,23.90
2019-03-31T01:28:27.347Z,23.80
2019-03-31T01:30:54.227Z,23.70
2019-03-31T01:33:21.115Z,23.80
2019-03-31T01:35:48.097Z,23.80
2019-03-31T01:38:15.140Z,23.80
2019-03-31T01:40:41.924Z,23.70
2019-03-31T01:43:08.659Z,23.60
2019-03-31T01:45:35.399Z,23.70
2019-03-31T01:48:02.642Z,23.70
2019-03-31T01:50:29.483Z,23.70
2019-03-31T01:52:56.235Z,23.80
2019-03-31T01:55:23.063Z,23.80
2019-03-31T01:57:50.101Z,23.80
2019-03-31T02:00:17.332Z,23.70
2019-03-31T02:02:44.114Z,23.70
2019-03-31T02:05:10.815Z,23.60
2019-03-31T02:07:38.732Z,23.80
2019-03-31T02:10:05.749Z,23.80
2019-03-31T02:12:32.413Z,23.80
2019-03-31T02:14:59.116Z,23.60
2019-03-31T02:17:25.912Z,23.80
2019-03-31T02:19:53.297Z,23.80
2019-03-31T02:22:20.038Z,23.80
2019-03-31T02:24:48.014Z,23.70
2019-03-31T02:27:14.725Z,23.90
2019-03-31T02:29:41.805Z,23.80
2019-03-31T02:32:22.585Z,23.80
2019-03-31T02:34:37.556Z,23.80
2019-03-31T02:37:04.312Z,24.00
2019-03-31T02:39:31.467Z,23.90
2019-03-31T02:41:58.574Z,23.90
2019-03-31T02:44:25.273Z,23.90
2019-03-31T02:46:52.064Z,23.90
2019-03-31T02:49:18.819Z,23.90
2019-03-31T02:51:45.557Z,23.90
2019-03-31T02:54:12.654Z,24.00
2019-03-31T02:56:39.586Z,24.00
2019-03-31T02:59:06.256Z,24.00
2019-03-31T03:01:33.074Z,24.00
2019-03-31T03:03:59.786Z,24.00
2019-03-31T03:06:26.477Z,24.00
2019-03-31T03:08:53.281Z,24.00
2019-03-31T03:11:19.975Z,24.00
2019-03-31T03:13:46.599Z,23.90
2019-03-31T03:16:13.402Z,23.90
2019-03-31T03:18:40.088Z,23.90
2019-03-31T03:21:06.832Z,23.80
2019-03-31T03:23:33.606Z,23.80
2019-03-31T03:26:00.296Z,23.80
2019-03-31T03:28:27.024Z,23.90
2019-03-31T03:30:53.909Z,23.90
2019-03-31T03:33:20.966Z,23.90
2019-03-31T03:35:47.703Z,23.90
2019-03-31T03:38:14.452Z,23.90
2019-03-31T03:40:41.159Z,23.90
2019-03-31T03:43:07.890Z,23.90
2019-03-31T03:45:34.677Z,23.90
2019-03-31T03:48:01.377Z,24.00
2019-03-31T03:50:28.105Z,23.90
2019-03-31T03:52:54.912Z,23.90
2019-03-31T03:55:21.628Z,24.00
2019-03-31T03:57:48.324Z,23.90
2019-03-31T04:00:15.128Z,24.00
2019-03-31T04:02:41.809Z,23.90
2019-03-31T04:05:08.444Z,24.00
2019-03-31T04:07:35.221Z,24.00
2019-03-31T04:10:01.972Z,24.00
2019-03-31T04:12:28.633Z,24.00
2019-03-31T04:14:55.388Z,23.90
2019-03-31T04:17:22.130Z,24.00
2019-03-31T04:19:48.828Z,24.00
2019-03-31T04:22:15.606Z,24.00
2019-03-31T04:24:42.304Z,24.10
2019-03-31T04:27:09.035Z,24.20
2019-03-31T04:29:35.784Z,24.20
2019-03-31T04:32:02.528Z,24.20
2019-03-31T04:34:29.219Z,24.00
2019-03-31T04:36:56.326Z,24.00
2019-03-31T04:39:23.017Z,24.10
2019-03-31T04:41:49.749Z,24.00
2019-03-31T04:44:16.506Z,24.00
2019-03-31T04:46:43.197Z,24.00
2019-03-31T04:49:09.899Z,23.90
2019-03-31T04:51:36.664Z,23.90
2019-03-31T04:54:03.397Z,23.90
2019-03-31T04:56:30.117Z,24.00
2019-03-31T04:58:56.911Z,23.80
2019-03-31T05:01:23.651Z,23.80
2019-03-31T05:04:03.761Z,23.90
2019-03-31T05:06:19.163Z,23.90
2019-03-31T05:08:45.886Z,24.00
2019-03-31T05:11:12.612Z,23.90
2019-03-31T05:13:39.405Z,23.80
2019-03-31T05:16:06.144Z,23.90
2019-03-31T05:18:32.878Z,23.90
2019-03-31T05:20:59.659Z,23.80
2019-03-31T05:23:26.352Z,23.70
2019-03-31T05:25:53.060Z,23.60
2019-03-31T05:28:19.825Z,23.40
2019-03-31T05:30:46.450Z,23.20
2019-03-31T05:33:13.153Z,23.20
2019-03-31T05:35:39.940Z,23.20
2019-03-31T05:38:06.666Z,23.10
2019-03-31T05:40:33.367Z,22.80
2019-03-31T05:43:00.159Z,22.80
2019-03-31T05:45:26.849Z,22.60
2019-03-31T05:47:53.483Z,22.60
2019-03-31T05:50:20.286Z,22.30
2019-03-31T05:52:46.988Z,22.10
2019-03-31T05:55:13.682Z,22.00
2019-03-31T05:57:40.451Z,21.90
2019-03-31T06:00:07.151Z,21.80
2019-03-31T06:02:33.803Z,21.40
2019-03-31T06:05:00.567Z,21.10
2019-03-31T06:07:27.277Z,20.90
2019-03-31T06:09:54.007Z,20.70
2019-03-31T06:12:20.767Z,20.60
2019-03-31T06:14:47.407Z,20.50
2019-03-31T06:17:14.105Z,20.60
2019-03-31T06:19:41.037Z,21.00
2019-03-31T06:22:07.772Z,20.60
2019-03-31T06:24:34.480Z,20.40
2019-03-31T06:27:01.275Z,20.20
2019-03-31T06:29:27.966Z,19.80
2019-03-31T06:31:54.628Z,19.30
2019-03-31T06:34:21.378Z,19.00
2019-03-31T06:36:48.041Z,18.80
2019-03-31T06:39:14.736Z,18.50
2019-03-31T06:41:41.516Z,18.20
2019-03-31T06:44:08.250Z,17.90
2019-03-31T06:46:34.965Z,17.60
2019-03-31T06:49:01.724Z,17.20
2019-03-31T06:51:28.379Z,16.90
2019-03-31T06:53:55.107Z,16.40
2019-03-31T06:56:21.867Z,16.20
2019-03-31T06:58:48.613Z,16.00
2019-03-31T07:01:15.304Z,16.00
2019-03-31T07:03:41.984Z,15.70
2019-03-31T07:06:08.721Z,15.20
2019-03-31T07:08:35.453Z,15.20
2019-03-31T07:11:02.195Z,14.70
2019-03-31T07:13:28.902Z,14.90
2019-03-31T07:15:55.639Z,14.90
2019-03-31T07:18:22.413Z,14.80
2019-03-31T07:20:49.255Z,14.60
2019-03-31T07:23:15.920Z,14.40
2019-03-31T07:25:42.715Z,14.50
2019-03-31T07:28:09.427Z,13.80
2019-03-31T07:30:36.161Z,14.10
2019-03-31T07:33:02.958Z,13.60
2019-03-31T07:35:29.667Z,12.90
2019-03-31T07:37:56.379Z,13.60
2019-03-31T07:40:23.442Z,13.90
2019-03-31T07:42:51.217Z,13.80
2019-03-31T07:45:18.208Z,13.70
2019-03-31T07:47:44.997Z,13.70
2019-03-31T07:50:11.691Z,13.60
2019-03-31T07:52:38.324Z,13.60
2019-03-31T07:55:05.091Z,13.40
2019-03-31T07:57:31.823Z,13.20
2019-03-31T07:59:58.552Z,13.50
2019-03-31T08:02:26.320Z,13.50
2019-03-31T08:04:53.021Z,13.70
2019-03-31T08:07:19.726Z,13.10
2019-03-31T08:09:46.539Z,13.40
2019-03-31T08:12:13.264Z,13.60
2019-03-31T08:14:39.996Z,13.30
2019-03-31T08:17:06.792Z,13.20
2019-03-31T08:19:33.524Z,13.30
2019-03-31T08:22:00.248Z,13.10
2019-03-31T08:24:27.049Z,13.10
2019-03-31T08:26:53.842Z,13.00
2019-03-31T08:29:20.612Z,13.60
2019-03-31T08:31:47.473Z,13.70
2019-03-31T08:34:14.241Z,13.20
2019-03-31T08:36:42.138Z,13.10
2019-03-31T08:39:09.486Z,13.40
2019-03-31T08:41:36.280Z,13.10
2019-03-31T08:44:03.253Z,12.40
2019-03-31T08:46:30.355Z,12.30
2019-03-31T08:48:57.107Z,12.30
2019-03-31T08:51:23.788Z,13.00
2019-03-31T08:53:50.470Z,12.00
2019-03-31T08:56:17.199Z,11.00
2019-03-31T08:58:43.907Z,11.30
2019-03-31T09:01:10.670Z,11.20
2019-03-31T09:03:37.424Z,10.60
2019-03-31T09:06:04.263Z,10.60
2019-03-31T09:08:31.065Z,10.30
2019-03-31T09:10:57.801Z,10.10
2019-03-31T09:13:24.873Z,10.60
2019-03-31T09:15:51.642Z,10.50
2019-03-31T09:18:18.495Z,9.00
2019-03-31T09:20:45.202Z,9.80
2019-03-31T09:23:12.227Z,9.70
2019-03-31T09:25:38.955Z,9.60
2019-03-31T09:28:05.683Z,9.50
2019-03-31T09:30:32.551Z,8.90
2019-03-31T09:32:59.279Z,9.30
2019-03-31T09:35:26.475Z,9.50
2019-03-31T09:37:53.452Z,9.30
2019-03-31T09:40:20.153Z,8.70
2019-03-31T09:42:47.567Z,9.30
2019-03-31T09:45:14.562Z,9.50
2019-03-31T09:47:41.287Z,8.80
2019-03-31T09:50:08.010Z,8.70
2019-03-31T09:52:34.789Z,9.00
2019-03-31T09:55:01.526Z,8.90
2019-03-31T09:57:28.203Z,8.30
2019-03-31T09:59:55.004Z,7.70
2019-03-31T10:02:21.730Z,8.00
2019-03-31T10:04:48.469Z,7.60
2019-03-31T10:07:15.267Z,7.90
2019-03-31T10:09:41.966Z,8.00
2019-03-31T10:12:08.704Z,8.10
2019-03-31T10:14:35.468Z,7.60
2019-03-31T10:17:02.164Z,6.70
2019-03-31T10:19:28.861Z,6.90
2019-03-31T10:21:55.627Z,6.80
2019-03-31T10:24:22.825Z,7.20
2019-03-31T10:26:49.558Z,7.20
2019-03-31T10:29:16.721Z,6.70
2019-03-31T10:31:43.363Z,6.30
2019-03-31T10:34:10.054Z,6.50
2019-03-31T10:36:44.305Z,6.60
2019-03-31T10:39:05.192Z,7.00
2019-03-31T10:41:31.851Z,6.10
2019-03-31T10:43:58.668Z,6.60
2019-03-31T10:46:25.418Z,5.60
2019-03-31T10:48:52.124Z,5.60
2019-03-31T10:51:18.914Z,5.80
2019-03-31T10:53:45.582Z,4.80
2019-03-31T10:56:12.316Z,5.80
2019-03-31T10:58:39.096Z,5.70
2019-03-31T11:01:05.817Z,5.70
2019-03-31T11:03:33.172Z,5.50
2019-03-31T11:05:59.969Z,5.60
2019-03-31T11:08:26.742Z,5.30
2019-03-31T11:10:53.451Z,4.90
2019-03-31T11:13:20.280Z,5.20
2019-03-31T11:15:47.136Z,4.60
2019-03-31T11:18:13.981Z,4.60
2019-03-31T11:20:40.815Z,4.20
2019-03-31T11:23:07.562Z,4.10
2019-03-31T11:25:34.283Z,4.50
2019-03-31T11:28:01.028Z,4.40
2019-03-31T11:30:27.766Z,4.40
2019-03-31T11:32:54.511Z,4.40
2019-03-31T11:35:21.358Z,4.60
2019-03-31T11:37:48.089Z,4.60
2019-03-31T11:40:14.791Z,4.30
2019-03-31T11:42:42.211Z,3.90
2019-03-31T11:45:09.345Z,4.20
2019-03-31T11:47:36.418Z,4.20
2019-03-31T11:50:03.221Z,4.00
2019-03-31T11:52:29.917Z,4.10
2019-03-31T11:54:56.699Z,4.30
2019-03-31T11:57:23.552Z,4.50
2019-03-31T11:59:50.386Z,4.30
2019-03-31T12:02:27.139Z,4.50
2019-03-31T12:04:45.811Z,4.70
2019-03-31T12:07:26.937Z,4.80
2019-03-31T12:09:40.949Z,4.50
2019-03-31T12:12:07.869Z,4.70
2019-03-31T12:14:34.573Z,4.50
2019-03-31T12:17:01.362Z,4.50
2019-03-31T12:19:28.183Z,4.70
2019-03-31T12:21:55.037Z,4.20
2019-03-31T12:24:21.738Z,4.40
2019-03-31T12:26:48.498Z,4.60
2019-03-31T12:29:15.205Z,5.00
2019-03-31T12:31:42.066Z,4.70
2019-03-31T12:34:09.080Z,4.70
2019-03-31T12:36:35.798Z,4.70
2019-03-31T12:39:04.157Z,4.60
2019-03-31T12:41:31.199Z,4.20
2019-03-31T12:43:58.036Z,4.20
2019-03-31T12:46:24.773Z,4.50
2019-03-31T12:48:51.618Z,3.70
2019-03-31T12:51:18.369Z,3.80
2019-03-31T12:53:45.203Z,4.60
2019-03-31T12:56:12.036Z,4.60
2019-03-31T12:58:38.772Z,4.60
2019-03-31T13:01:05.510Z,4.30
2019-03-31T13:03:32.462Z,4.60
2019-03-31T13:05:59.160Z,4.60
2019-03-31T13:08:25.936Z,5.10
2019-03-31T13:10:52.794Z,5.00
2019-03-31T13:13:19.524Z,5.20
2019-03-31T13:15:46.218Z,5.40
2019-03-31T13:18:13.017Z,5.40
2019-03-31T13:20:39.833Z,5.20
2019-03-31T13:23:06.794Z,4.70
2019-03-31T13:25:34.098Z,5.80
2019-03-31T13:28:01.421Z,5.00
2019-03-31T13:30:28.336Z,4.70
2019-03-31T13:32:55.192Z,4.90
2019-03-31T13:35:22.012Z,4.50
2019-03-31T13:37:48.749Z,4.40
2019-03-31T13:40:15.606Z,4.50
2019-03-31T13:42:42.333Z,4.60
2019-03-31T13:45:09.213Z,4.30
2019-03-31T13:47:36.219Z,4.80
2019-03-31T13:50:03.126Z,5.30
2019-03-31T13:52:29.911Z,5.40
2019-03-31T13:54:59.708Z,5.50
2019-03-31T13:57:29.722Z,5.80
2019-03-31T13:59:56.851Z,5.60
2019-03-31T14:02:23.805Z,5.90
2019-03-31T14:04:51.893Z,6.00
2019-03-31T14:07:18.937Z,5.60
2019-03-31T14:09:45.778Z,5.90
2019-03-31T14:12:12.748Z,6.00
2019-03-31T14:14:39.583Z,6.20
2019-03-31T14:17:06.484Z,5.90
2019-03-31T14:19:33.250Z,5.60
2019-03-31T14:22:00.563Z,5.90
2019-03-31T14:24:27.869Z,6.30
2019-03-31T14:26:54.602Z,6.60
2019-03-31T14:29:21.881Z,6.30
2019-03-31T14:31:52.004Z,6.80
2019-03-31T14:34:18.295Z,6.70
2019-03-31T14:36:45.849Z,6.90
2019-03-31T14:39:17.025Z,6.90
2019-03-31T14:41:42.981Z,6.50
2019-03-31T14:44:09.676Z,6.80
2019-03-31T14:46:36.507Z,6.80
2019-03-31T14:49:03.698Z,6.90
2019-03-31T14:51:30.497Z,7.70
2019-03-31T14:53:58.214Z,7.50
2019-03-31T14:56:25.121Z,8.00
2019-03-31T14:58:52.055Z,8.10
2019-03-31T15:01:21.254Z,8.20
2019-03-31T15:03:47.519Z,8.70
2019-03-31T15:06:14.311Z,9.10
2019-03-31T15:08:53.711Z,9.20
2019-03-31T15:11:09.529Z,9.80
2019-03-31T15:13:36.388Z,10.00
2019-03-31T15:16:03.225Z,10.10
2019-03-31T15:18:30.075Z,10.60
2019-03-31T15:20:56.993Z,10.80
2019-03-31T15:23:28.817Z,11.10
2019-03-31T15:25:52.219Z,10.90
2019-03-31T15:28:18.933Z,11.20
2019-03-31T15:30:46.316Z,10.90
2019-03-31T15:33:13.040Z,10.80
2019-03-31T15:35:39.759Z,11.00
2019-03-31T15:38:06.631Z,10.80
2019-03-31T15:40:33.370Z,11.10
2019-03-31T15:43:00.100Z,10.90
2019-03-31T15:45:26.903Z,11.30
2019-03-31T15:47:53.768Z,11.60
2019-03-31T15:50:20.430Z,11.60
2019-03-31T15:52:47.271Z,11.80
2019-03-31T15:55:14.114Z,11.60
2019-03-31T15:57:40.844Z,12.10
2019-03-31T16:00:10.754Z,12.10
2019-03-31T16:02:37.511Z,12.30
2019-03-31T16:05:04.323Z,12.50
2019-03-31T16:07:31.500Z,12.70
2019-03-31T16:09:58.378Z,12.90
2019-03-31T16:12:25.307Z,12.90
2019-03-31T16:14:52.095Z,12.80
2019-03-31T16:17:18.871Z,13.20
2019-03-31T16:19:45.802Z,13.50
2019-03-31T16:22:12.636Z,13.80
2019-03-31T16:24:39.989Z,13.80
2019-03-31T16:27:07.047Z,14.00
2019-03-31T16:29:33.921Z,14.10
2019-03-31T16:32:01.332Z,14.20
2019-03-31T16:34:28.182Z,14.30
2019-03-31T16:36:54.915Z,14.50
2019-03-31T16:39:21.585Z,14.40
2019-03-31T16:41:48.496Z,14.50
2019-03-31T16:44:15.818Z,14.50
2019-03-31T16:46:42.835Z,14.80
2019-03-31T16:49:09.766Z,14.60
2019-03-31T16:51:36.801Z,14.80
2019-03-31T16:54:03.707Z,14.90
2019-03-31T16:56:30.580Z,15.40
2019-03-31T16:58:57.411Z,14.90
2019-03-31T17:01:24.162Z,15.10
2019-03-31T17:03:50.890Z,15.00
2019-03-31T17:06:17.730Z,15.20
2019-03-31T17:08:44.494Z,15.30
2019-03-31T17:11:11.433Z,15.30
2019-03-31T17:13:38.629Z,15.20
2019-03-31T17:16:05.420Z,15.30
2019-03-31T17:18:32.262Z,15.70
2019-03-31T17:20:59.190Z,16.00
2019-03-31T17:23:26.206Z,16.30
2019-03-31T17:25:52.962Z,16.40
2019-03-31T17:28:19.823Z,16.70
2019-03-31T17:30:46.617Z,16.70
2019-03-31T17:33:13.476Z,16.70
2019-03-31T17:35:40.484Z,16.90
2019-03-31T17:38:07.305Z,17.10
2019-03-31T17:40:34.048Z,17.40
2019-03-31T17:43:00.878Z,17.50
2019-03-31T17:45:27.942Z,17.80
2019-03-31T17:47:54.936Z,18.00
2019-03-31T17:50:21.810Z,18.10
2019-03-31T17:52:48.527Z,18.20
2019-03-31T17:55:15.298Z,18.50
2019-03-31T17:57:42.942Z,18.50
2019-03-31T18:00:09.786Z,18.70
2019-03-31T18:02:36.538Z,18.70
2019-03-31T18:05:03.339Z,18.80
2019-03-31T18:07:30.106Z,19.00
2019-03-31T18:09:56.959Z,18.90
2019-03-31T18:12:27.653Z,19.30
2019-03-31T18:14:54.107Z,19.40
2019-03-31T18:17:20.866Z,19.40
2019-03-31T18:19:47.689Z,19.70
2019-03-31T18:22:16.737Z,20.10
2019-03-31T18:24:42.910Z,20.30
2019-03-31T18:27:10.164Z,20.40
2019-03-31T18:29:36.905Z,20.70
2019-03-31T18:32:03.867Z,20.70
2019-03-31T18:34:31.410Z,20.90
2019-03-31T18:36:58.155Z,20.80
2019-03-31T18:39:24.883Z,21.10
2019-03-31T18:41:51.726Z,21.30
2019-03-31T18:44:18.472Z,21.60
2019-03-31T18:46:45.313Z,21.60
2019-03-31T18:49:12.562Z,21.70
2019-03-31T18:51:39.407Z,21.80
2019-03-31T18:54:06.265Z,21.70
2019-03-31T18:56:33.092Z,21.70
2019-03-31T18:58:59.931Z,21.50
2019-03-31T19:01:26.781Z,21.80
2019-03-31T19:03:53.605Z,21.20
2019-03-31T19:06:20.355Z,21.20
2019-03-31T19:08:47.088Z,21.10
2019-03-31T19:11:15.055Z,21.10
2019-03-31T19:13:54.746Z,21.10
2019-03-31T19:16:10.177Z,21.00
2019-03-31T19:18:37.009Z,21.00
2019-03-31T19:21:11.500Z,21.00
2019-03-31T19:23:32.345Z,21.00
2019-03-31T19:25:59.174Z,20.90
2019-03-31T19:28:26.677Z,20.90
2019-03-31T19:30:53.488Z,20.90
2019-03-31T19:33:20.379Z,20.70
2019-03-31T19:35:47.152Z,20.90
2019-03-31T19:38:14.333Z,21.40
2019-03-31T19:40:41.614Z,20.90
2019-03-31T19:43:09.711Z,20.90
2019-03-31T19:45:36.410Z,20.90
2019-03-31T19:48:03.205Z,20.90
2019-03-31T19:50:29.945Z,20.80
2019-03-31T19:52:56.699Z,20.90
2019-03-31T19:55:23.483Z,21.00
2019-03-31T19:57:50.284Z,21.00
2019-03-31T20:00:17.111Z,21.00
2019-03-31T20:02:44.192Z,21.10
2019-03-31T20:05:11.014Z,21.20
2019-03-31T20:07:37.846Z,21.10
2019-03-31T20:10:04.683Z,21.30
2019-03-31T20:12:31.557Z,21.30
2019-03-31T20:14:58.227Z,21.40
2019-03-31T20:17:26.018Z,21.40
2019-03-31T20:19:52.875Z,21.40
2019-03-31T20:22:19.625Z,21.30
2019-03-31T20:24:46.646Z,22.00
2019-03-31T20:27:13.404Z,21.70
2019-03-31T20:29:41.065Z,21.50
2019-03-31T20:32:07.895Z,21.60
2019-03-31T20:34:36.099Z,21.60
2019-03-31T20:37:02.873Z,21.60
2019-03-31T20:39:31.549Z,21.50
2019-03-31T20:41:58.481Z,21.70
2019-03-31T20:44:25.787Z,21.80
2019-03-31T20:46:52.985Z,21.80
2019-03-31T20:49:20.140Z,21.70
2019-03-31T20:51:47.861Z,21.40
2019-03-31T20:54:15.043Z,21.40
2019-03-31T20:56:42.666Z,21.50
2019-03-31T20:59:09.518Z,21.30
2019-03-31T21:01:36.996Z,21.20
2019-03-31T21:04:03.804Z,21.20
2019-03-31T21:06:31.572Z,21.20
2019-03-31T21:08:58.441Z,21.10
2019-03-31T21:11:25.250Z,21.20
2019-03-31T21:13:52.800Z,21.10
2019-03-31T21:16:19.847Z,21.10
2019-03-31T21:18:47.626Z,21.20
2019-03-31T21:21:14.553Z,21.10
2019-03-31T21:23:41.460Z,21.40
2019-03-31T21:26:08.363Z,21.30
2019-03-31T21:28:36.335Z,21.40
2019-03-31T21:31:03.169Z,21.30
2019-03-31T21:33:30.109Z,21.30
2019-03-31T21:35:56.912Z,21.20
2019-03-31T21:38:23.677Z,21.80
2019-03-31T21:40:50.534Z,21.10
2019-03-31T21:43:17.253Z,21.20
2019-03-31T21:45:44.300Z,21.20
2019-03-31T21:48:11.039Z,21.20
2019-03-31T21:50:37.781Z,21.20
2019-03-31T21:53:04.637Z,21.20
2019-03-31T21:55:31.575Z,21.10
2019-03-31T21:57:58.302Z,21.10
2019-03-31T22:00:25.046Z,21.00
2019-03-31T22:02:51.901Z,21.00
2019-03-31T22:05:18.642Z,21.10
2019-03-31T22:07:45.465Z,21.10
2019-03-31T22:10:12.520Z,21.00
2019-03-31T22:12:39.250Z,21.00
2019-03-31T22:15:06.025Z,21.00
2019-03-31T22:17:32.726Z,20.90
2019-03-31T22:19:59.581Z,21.00
2019-03-31T22:22:26.411Z,20.90
2019-03-31T22:24:53.347Z,20.80
2019-03-31T22:27:20.386Z,21.00
2019-03-31T22:29:47.139Z,20.90
2019-03-31T22:32:13.871Z,20.90
2019-03-31T22:34:40.508Z,21.00
2019-03-31T22:37:07.626Z,21.10
2019-03-31T22:39:35.426Z,21.10
2019-03-31T22:42:02.096Z,21.10
2019-03-31T22:44:28.876Z,20.70
2019-03-31T22:46:56.677Z,21.00
2019-03-31T22:49:23.394Z,20.90
2019-03-31T22:51:52.197Z,20.90
2019-03-31T22:54:19.052Z,20.90
2019-03-31T22:56:46.872Z,20.80
2019-03-31T22:59:13.747Z,20.70
2019-03-31T23:01:40.498Z,20.70
2019-03-31T23:04:07.297Z,20.40
2019-03-31T23:06:33.982Z,20.40
2019-03-31T23:09:00.832Z,20.60
2019-03-31T23:11:27.703Z,20.70
2019-03-31T23:13:54.702Z,20.50
2019-03-31T23:16:21.413Z,20.20
2019-03-31T23:18:48.180Z,20.20
2019-03-31T23:21:15.017Z,20.10
2019-03-31T23:23:42.165Z,20.30
2019-03-31T23:26:08.903Z,20.10
2019-03-31T23:28:36.156Z,20.00
2019-03-31T23:31:03.788Z,20.00
2019-03-31T23:33:31.680Z,19.90
2019-03-31T23:35:59.051Z,20.00
2019-03-31T23:38:26.283Z,20.20
2019-03-31T23:40:53.025Z,20.10
2019-03-31T23:43:19.864Z,20.20
2019-03-31T23:45:46.910Z,20.20
2019-03-31T23:48:13.652Z,20.20
2019-03-31T23:50:41.730Z,20.30
2019-03-31T23:53:08.572Z,20.40
2019-03-31T23:55:36.633Z,20.40
2019-03-31T23:58:05.271Z,20.40
